createdAt,value
2018-02-05T00:00:16.344Z,99.90
2018-02-05T00:02:43.914Z,99.90
2018-02-05T00:05:11.465Z,99.90
2018-02-05T00:07:39.023Z,99.90
2018-02-05T00:10:06.585Z,99.90
2018-02-05T00:12:34.145Z,99.90
2018-02-05T00:15:01.731Z,99.90
2018-02-05T00:17:30.047Z,99.80
2018-02-05T00:19:57.602Z,99.80
2018-02-05T00:22:25.159Z,99.80
2018-02-05T00:24:52.729Z,99.80
2018-02-05T00:27:20.305Z,99.60
2018-02-05T00:29:47.856Z,99.50
2018-02-05T00:32:15.418Z,99.60
2018-02-05T00:34:42.963Z,99.50
2018-02-05T00:37:10.503Z,99.50
2018-02-05T00:39:38.102Z,99.50
2018-02-05T00:42:05.691Z,99.60
2018-02-05T00:44:33.223Z,99.60
2018-02-05T00:47:00.772Z,99.70
2018-02-05T00:49:28.315Z,99.80
2018-02-05T00:51:55.904Z,99.60
2018-02-05T00:54:23.453Z,99.50
2018-02-05T00:56:51.039Z,99.80
2018-02-05T00:59:18.582Z,99.70
2018-02-05T01:01:46.138Z,99.40
2018-02-05T01:04:13.707Z,99.10
2018-02-05T01:06:41.257Z,99.10
2018-02-05T01:09:08.854Z,99.20
2018-02-05T01:11:36.410Z,99.20
2018-02-05T01:14:03.956Z,98.70
2018-02-05T01:16:35.293Z,98.60
2018-02-05T01:19:02.839Z,98.70
2018-02-05T01:21:30.440Z,98.80
2018-02-05T01:23:58.762Z,98.80
2018-02-05T01:26:27.072Z,99.00
2018-02-05T01:28:54.628Z,99.00
2018-02-05T01:31:22.181Z,99.10
2018-02-05T01:33:49.722Z,99.10
2018-02-05T01:36:17.287Z,99.10
2018-02-05T01:38:44.859Z,99.20
2018-02-05T01:41:12.404Z,99.30
2018-02-05T01:43:39.976Z,99.50
2018-02-05T01:46:07.550Z,99.40
2018-02-05T01:48:35.105Z,99.60
2018-02-05T01:51:02.691Z,99.50
2018-02-05T01:53:30.247Z,99.60
2018-02-05T01:55:57.800Z,99.70
2018-02-05T01:58:25.352Z,99.70
2018-02-05T02:00:52.914Z,99.50
2018-02-05T02:03:20.500Z,99.30
2018-02-05T02:05:48.064Z,99.30
2018-02-05T02:08:15.615Z,99.40
2018-02-05T02:10:43.172Z,99.50
2018-02-05T02:13:10.723Z,99.40
2018-02-05T02:15:38.299Z,99.10
2018-02-05T02:18:05.860Z,99.00
2018-02-05T02:20:33.410Z,99.10
2018-02-05T02:23:00.971Z,99.00
2018-02-05T02:25:28.531Z,99.30
2018-02-05T02:27:56.109Z,99.50
2018-02-05T02:30:23.663Z,99.70
2018-02-05T02:32:51.227Z,99.80
2018-02-05T02:35:18.790Z,99.80
2018-02-05T02:37:46.342Z,99.90
2018-02-05T02:40:13.933Z,99.90
2018-02-05T02:42:42.264Z,99.90
2018-02-05T02:45:10.587Z,99.90
2018-02-05T02:47:38.932Z,99.90
2018-02-05T02:50:07.259Z,99.90
2018-02-05T02:52:34.835Z,99.90
2018-02-05T02:55:02.393Z,99.90
2018-02-05T02:57:29.950Z,99.90
2018-02-05T02:59:57.527Z,99.90
2018-02-05T03:02:25.083Z,99.90
2018-02-05T03:04:52.666Z,99.90
2018-02-05T03:07:20.230Z,99.90
2018-02-05T03:09:47.784Z,99.90
2018-02-05T03:12:16.112Z,99.90
2018-02-05T03:14:44.443Z,99.90
2018-02-05T03:17:12.035Z,99.90
2018-02-05T03:19:39.594Z,99.90
2018-02-05T03:22:07.151Z,99.90
2018-02-05T03:24:34.715Z,99.90
2018-02-05T03:27:02.272Z,99.90
2018-02-05T03:29:29.854Z,99.90
2018-02-05T03:31:57.417Z,99.90
2018-02-05T03:34:24.982Z,99.90
2018-02-05T03:36:52.548Z,99.90
2018-02-05T03:39:20.118Z,99.90
2018-02-05T03:41:47.708Z,99.90
2018-02-05T03:44:15.268Z,99.90
2018-02-05T03:46:42.828Z,99.90
2018-02-05T03:49:14.671Z,99.90
2018-02-05T03:51:42.333Z,99.70
2018-02-05T03:54:09.930Z,99.50
2018-02-05T03:56:37.490Z,99.50
2018-02-05T03:59:05.042Z,99.50
2018-02-05T04:01:32.614Z,99.50
2018-02-05T04:04:00.184Z,99.50
2018-02-05T04:06:28.550Z,99.80
2018-02-05T04:08:56.108Z,99.80
2018-02-05T04:11:23.667Z,99.60
2018-02-05T04:13:51.222Z,99.50
2018-02-05T04:16:18.771Z,99.30
2018-02-05T04:18:51.046Z,99.20
2018-02-05T04:21:18.608Z,99.40
2018-02-05T04:23:46.166Z,99.10
2018-02-05T04:26:13.735Z,98.80
2018-02-05T04:28:41.278Z,98.70
2018-02-05T04:31:09.635Z,98.80
2018-02-05T04:33:37.194Z,98.80
2018-02-05T04:36:04.746Z,98.70
2018-02-05T04:38:32.299Z,98.90
2018-02-05T04:40:59.846Z,98.90
2018-02-05T04:43:28.190Z,98.90
2018-02-05T04:45:55.739Z,98.90
2018-02-05T04:48:23.294Z,99.20
2018-02-05T04:50:50.852Z,98.90
2018-02-05T04:53:18.404Z,98.70
2018-02-05T04:55:46.000Z,98.60
2018-02-05T04:58:13.561Z,98.80
2018-02-05T05:00:41.120Z,98.90
2018-02-05T05:03:08.672Z,98.80
2018-02-05T05:05:36.233Z,98.60
2018-02-05T05:08:03.810Z,98.60
2018-02-05T05:10:31.374Z,98.60
2018-02-05T05:12:59.727Z,98.90
2018-02-05T05:15:27.315Z,98.90
2018-02-05T05:17:55.630Z,98.90
2018-02-05T05:20:23.221Z,98.90
2018-02-05T05:22:50.781Z,98.90
2018-02-05T05:25:18.331Z,98.80
2018-02-05T05:27:45.901Z,98.70
2018-02-05T05:30:13.463Z,98.70
2018-02-05T05:32:41.050Z,98.70
2018-02-05T05:35:09.382Z,98.90
2018-02-05T05:37:36.936Z,98.70
2018-02-05T05:40:04.498Z,98.70
2018-02-05T05:42:32.067Z,98.90
2018-02-05T05:44:59.650Z,98.80
2018-02-05T05:47:27.223Z,98.80
2018-02-05T05:49:55.560Z,99.30
2018-02-05T05:52:26.501Z,99.20
2018-02-05T05:54:54.057Z,99.10
2018-02-05T05:57:21.640Z,98.80
2018-02-05T05:59:52.580Z,98.70
2018-02-05T06:02:20.139Z,98.80
2018-02-05T06:04:47.702Z,98.60
2018-02-05T06:07:15.265Z,98.70
2018-02-05T06:09:42.851Z,98.80
2018-02-05T06:12:11.181Z,98.50
2018-02-05T06:14:38.737Z,98.40
2018-02-05T06:17:06.298Z,98.40
2018-02-05T06:19:33.851Z,98.40
2018-02-05T06:22:01.427Z,98.40
2018-02-05T06:24:28.984Z,98.50
2018-02-05T06:26:56.544Z,98.30
2018-02-05T06:29:24.106Z,98.20
2018-02-05T06:31:51.661Z,98.40
2018-02-05T06:34:19.258Z,98.50
2018-02-05T06:36:46.822Z,98.50
2018-02-05T06:39:14.388Z,98.40
2018-02-05T06:41:41.951Z,98.20
2018-02-05T06:44:10.277Z,98.00
2018-02-05T06:46:37.872Z,98.00
2018-02-05T06:49:05.442Z,98.00
2018-02-05T06:51:44.723Z,98.20
2018-02-05T06:54:24.022Z,98.10
2018-02-05T06:56:51.608Z,98.20
2018-02-05T06:59:19.183Z,98.30
2018-02-05T07:01:46.743Z,98.20
2018-02-05T07:04:14.300Z,98.20
2018-02-05T07:06:41.869Z,98.30
2018-02-05T07:09:09.495Z,98.30
2018-02-05T07:11:37.830Z,98.20
2018-02-05T07:14:05.385Z,98.20
2018-02-05T07:16:32.939Z,97.90
2018-02-05T07:19:00.514Z,98.00
2018-02-05T07:21:28.094Z,98.10
2018-02-05T07:23:55.658Z,98.30
2018-02-05T07:26:23.226Z,98.10
2018-02-05T07:28:51.551Z,98.00
2018-02-05T07:31:19.117Z,98.00
2018-02-05T07:33:46.751Z,97.90
2018-02-05T07:36:15.054Z,97.90
2018-02-05T07:38:42.618Z,97.90
2018-02-05T07:41:10.179Z,98.10
2018-02-05T07:43:37.735Z,98.10
2018-02-05T07:46:05.323Z,98.10
2018-02-05T07:48:32.883Z,98.10
2018-02-05T07:51:00.442Z,98.00
2018-02-05T07:53:27.998Z,97.80
2018-02-05T07:55:55.562Z,97.50
2018-02-05T07:58:23.206Z,97.60
2018-02-05T08:00:50.764Z,97.70
2018-02-05T08:06:12.617Z,97.80
2018-02-05T08:08:40.247Z,97.80
2018-02-05T08:11:07.812Z,97.90
2018-02-05T08:13:35.364Z,97.90
2018-02-05T08:16:02.928Z,98.10
2018-02-05T08:18:30.483Z,98.30
2018-02-05T08:20:58.063Z,97.80
2018-02-05T08:23:25.676Z,98.00
2018-02-05T08:25:54.004Z,97.10
2018-02-05T08:28:21.562Z,97.10
2018-02-05T08:30:49.128Z,97.30
2018-02-05T08:33:16.710Z,97.10
2018-02-05T08:35:44.258Z,97.00
2018-02-05T08:38:11.829Z,97.20
2018-02-05T08:40:39.397Z,97.10
2018-02-05T08:43:06.966Z,97.20
2018-02-05T08:45:34.556Z,97.30
2018-02-05T08:48:02.132Z,97.10
2018-02-05T08:50:29.691Z,97.40
2018-02-05T08:52:57.258Z,97.00
2018-02-05T08:55:24.823Z,97.30
2018-02-05T08:57:52.406Z,96.90
2018-02-05T09:00:19.996Z,96.70
2018-02-05T09:02:47.585Z,96.50
2018-02-05T09:05:15.899Z,96.80
2018-02-05T09:07:43.457Z,96.80
2018-02-05T09:10:11.056Z,96.60
2018-02-05T09:12:38.624Z,96.90
2018-02-05T09:15:07.054Z,96.30
2018-02-05T09:17:34.607Z,96.30
2018-02-05T09:20:02.158Z,96.30
2018-02-05T09:22:29.750Z,96.10
2018-02-05T09:24:57.308Z,95.50
2018-02-05T09:27:24.859Z,95.90
2018-02-05T09:29:52.419Z,95.40
2018-02-05T09:32:19.977Z,95.90
2018-02-05T09:34:47.563Z,95.90
2018-02-05T09:37:15.127Z,95.30
2018-02-05T09:39:42.680Z,95.60
2018-02-05T09:42:10.247Z,95.30
2018-02-05T09:44:37.851Z,95.60
2018-02-05T09:47:05.460Z,94.90
2018-02-05T09:49:33.014Z,95.00
2018-02-05T09:52:00.583Z,94.90
2018-02-05T09:54:28.147Z,94.90
2018-02-05T09:56:55.704Z,94.90
2018-02-05T09:59:23.286Z,95.50
2018-02-05T10:01:50.839Z,95.10
2018-02-05T10:04:18.390Z,94.60
2018-02-05T10:06:46.039Z,95.30
2018-02-05T10:09:13.657Z,94.40
2018-02-05T10:11:41.984Z,94.60
2018-02-05T10:14:09.538Z,94.70
2018-02-05T10:16:37.106Z,94.00
2018-02-05T10:19:04.659Z,94.10
2018-02-05T10:21:32.211Z,94.50
2018-02-05T10:23:59.791Z,94.20
2018-02-05T10:26:27.353Z,94.30
2018-02-05T10:28:54.903Z,93.80
2018-02-05T10:31:22.459Z,93.30
2018-02-05T10:33:50.020Z,92.60
2018-02-05T10:36:17.686Z,93.30
2018-02-05T10:38:45.246Z,92.50
2018-02-05T10:41:12.858Z,92.80
2018-02-05T10:43:41.182Z,92.20
2018-02-05T10:46:12.029Z,92.20
2018-02-05T10:48:39.611Z,92.60
2018-02-05T10:51:07.187Z,92.30
2018-02-05T10:53:35.504Z,91.80
2018-02-05T10:56:03.064Z,91.80
2018-02-05T10:58:30.646Z,91.60
2018-02-05T11:00:58.207Z,91.90
2018-02-05T11:03:25.748Z,91.00
2018-02-05T11:05:53.355Z,91.50
2018-02-05T11:08:21.700Z,91.80
2018-02-05T11:10:49.308Z,91.80
2018-02-05T11:13:16.872Z,90.20
2018-02-05T11:15:45.184Z,91.70
2018-02-05T11:18:12.752Z,91.70
2018-02-05T11:20:40.322Z,90.30
2018-02-05T11:23:07.878Z,88.30
2018-02-05T11:25:35.462Z,89.30
2018-02-05T11:28:03.016Z,90.20
2018-02-05T11:30:30.567Z,90.20
2018-02-05T11:32:58.151Z,87.70
2018-02-05T11:35:25.702Z,88.50
2018-02-05T11:37:53.255Z,88.40
2018-02-05T11:40:20.840Z,86.90
2018-02-05T11:42:49.285Z,87.60
2018-02-05T11:45:16.855Z,87.50
2018-02-05T11:47:44.426Z,86.10
2018-02-05T11:50:12.008Z,82.40
2018-02-05T11:52:40.324Z,81.30
2018-02-05T11:55:07.930Z,81.30
2018-02-05T11:57:35.498Z,82.30
2018-02-05T12:00:03.890Z,80.90
2018-02-05T12:02:32.239Z,81.90
2018-02-05T12:04:59.792Z,82.00
2018-02-05T12:07:27.354Z,83.70
2018-02-05T12:09:54.955Z,81.10
2018-02-05T12:12:22.545Z,84.00
2018-02-05T12:14:50.131Z,80.20
2018-02-05T12:17:17.715Z,80.50
2018-02-05T12:19:45.268Z,80.20
2018-02-05T12:22:12.856Z,78.70
2018-02-05T12:24:41.196Z,79.60
2018-02-05T12:27:08.752Z,79.60
2018-02-05T12:29:36.314Z,79.50
2018-02-05T12:32:04.664Z,79.40
2018-02-05T12:34:32.228Z,79.40
2018-02-05T12:36:59.787Z,78.40
2018-02-05T12:39:27.367Z,77.30
2018-02-05T12:41:54.924Z,75.60
2018-02-05T12:44:22.475Z,75.90
2018-02-05T12:46:50.076Z,75.80
2018-02-05T12:49:17.618Z,77.00
2018-02-05T12:51:45.175Z,78.70
2018-02-05T12:54:12.756Z,77.50
2018-02-05T12:56:40.310Z,76.50
2018-02-05T12:59:07.892Z,73.90
2018-02-05T13:01:37.049Z,73.50
2018-02-05T13:04:19.549Z,73.50
2018-02-05T13:06:49.076Z,74.60
2018-02-05T13:09:16.622Z,74.60
2018-02-05T13:11:44.187Z,73.90
2018-02-05T13:14:11.739Z,74.70
2018-02-05T13:16:39.291Z,74.10
2018-02-05T13:19:06.851Z,73.60
2018-02-05T13:21:34.426Z,74.90
2018-02-05T13:24:01.990Z,75.30
2018-02-05T13:26:29.544Z,72.20
2018-02-05T13:28:57.086Z,71.70
2018-02-05T13:31:24.642Z,73.90
2018-02-05T13:33:52.218Z,73.80
2018-02-05T13:36:25.024Z,76.00
2018-02-05T13:38:52.607Z,73.60
2018-02-05T13:41:20.151Z,74.30
2018-02-05T13:43:47.701Z,73.00
2018-02-05T13:46:15.250Z,73.40
2018-02-05T13:48:42.796Z,74.70
2018-02-05T13:51:10.384Z,75.00
2018-02-05T13:53:37.954Z,75.30
2018-02-05T13:56:05.500Z,74.70
2018-02-05T13:58:33.052Z,75.60
2018-02-05T14:01:00.651Z,73.90
2018-02-05T14:03:29.059Z,74.40
2018-02-05T14:05:56.611Z,74.40
2018-02-05T14:08:24.161Z,74.90
2018-02-05T14:10:51.712Z,76.10
2018-02-05T14:13:19.270Z,75.30
2018-02-05T14:15:47.608Z,75.40
2018-02-05T14:18:15.162Z,75.30
2018-02-05T14:20:42.726Z,76.60
2018-02-05T14:23:10.284Z,73.80
2018-02-05T14:25:37.835Z,74.00
2018-02-05T14:28:05.388Z,75.50
2018-02-05T14:30:32.953Z,75.30
2018-02-05T14:33:00.532Z,75.10
2018-02-05T14:35:28.095Z,75.50
2018-02-05T14:37:55.650Z,75.80
2018-02-05T14:40:23.207Z,75.20
2018-02-05T14:42:51.530Z,75.80
2018-02-05T14:45:19.878Z,76.50
2018-02-05T14:47:49.467Z,76.60
2018-02-05T14:50:17.016Z,75.70
2018-02-05T14:52:44.558Z,76.10
2018-02-05T14:55:12.106Z,76.20
2018-02-05T14:57:39.733Z,76.20
2018-02-05T15:00:07.283Z,76.40
2018-02-05T15:02:34.828Z,76.20
2018-02-05T15:05:02.373Z,76.50
2018-02-05T15:07:29.928Z,76.10
2018-02-05T15:09:57.504Z,75.70
2018-02-05T15:12:25.052Z,75.20
2018-02-05T15:14:52.603Z,76.30
2018-02-05T15:17:20.150Z,76.90
2018-02-05T15:19:47.700Z,76.00
2018-02-05T15:22:16.032Z,74.50
2018-02-05T15:24:44.166Z,74.50
2018-02-05T15:27:11.729Z,74.20
2018-02-05T15:29:39.287Z,74.90
2018-02-05T15:32:06.904Z,74.30
2018-02-05T15:34:35.275Z,75.20
2018-02-05T15:37:02.838Z,75.10
2018-02-05T15:39:30.399Z,75.20
2018-02-05T15:42:04.763Z,74.90
2018-02-05T15:44:32.335Z,75.00
2018-02-05T15:46:59.878Z,74.40
2018-02-05T15:49:39.726Z,74.70
2018-02-05T15:52:08.072Z,76.40
2018-02-05T15:54:35.631Z,76.40
2018-02-05T15:57:04.027Z,76.30
2018-02-05T15:59:32.347Z,76.50
2018-02-05T16:01:59.903Z,76.50
2018-02-05T16:04:27.491Z,76.90
2018-02-05T16:06:55.036Z,77.70
2018-02-05T16:09:22.597Z,79.10
2018-02-05T16:11:50.154Z,79.00
2018-02-05T16:14:17.975Z,79.40
2018-02-05T16:16:47.363Z,78.60
2018-02-05T16:19:15.783Z,79.30
2018-02-05T16:21:43.441Z,79.30
2018-02-05T16:24:22.650Z,80.30
2018-02-05T16:26:50.981Z,81.10
2018-02-05T16:29:18.655Z,81.10
2018-02-05T16:31:46.339Z,81.70
2018-02-05T16:34:13.932Z,81.90
2018-02-05T16:36:43.615Z,83.20
2018-02-05T16:39:11.207Z,83.20
2018-02-05T16:41:38.975Z,83.40
2018-02-05T16:44:06.548Z,83.30
2018-02-05T16:46:34.105Z,83.60
2018-02-05T16:49:01.667Z,83.60
2018-02-05T16:51:29.219Z,83.30
2018-02-05T16:53:56.802Z,84.30
2018-02-05T16:56:24.356Z,84.40
2018-02-05T16:58:51.966Z,84.20
2018-02-05T17:01:20.431Z,84.40
2018-02-05T17:03:48.018Z,84.00
2018-02-05T17:06:15.657Z,84.70
2018-02-05T17:08:43.226Z,85.00
2018-02-05T17:11:10.794Z,84.40
2018-02-05T17:13:38.339Z,83.80
2018-02-05T17:16:05.890Z,84.10
2018-02-05T17:18:33.465Z,83.90
2018-02-05T17:21:01.023Z,84.30
2018-02-05T17:23:34.250Z,84.60
2018-02-05T17:26:02.571Z,84.80
2018-02-05T17:28:30.146Z,84.80
2018-02-05T17:30:57.703Z,84.70
2018-02-05T17:33:25.258Z,84.50
2018-02-05T17:35:52.845Z,84.50
2018-02-05T17:38:20.403Z,85.00
2018-02-05T17:40:47.954Z,84.20
2018-02-05T17:43:16.339Z,84.10
2018-02-05T17:45:43.895Z,84.40
2018-02-05T17:48:11.471Z,84.50
2018-02-05T17:50:40.559Z,84.90
2018-02-05T17:53:08.139Z,85.40
2018-02-05T17:55:36.460Z,86.20
2018-02-05T17:58:04.011Z,86.20
2018-02-05T18:00:31.595Z,86.90
2018-02-05T18:02:59.144Z,87.50
2018-02-05T18:05:26.697Z,87.80
2018-02-05T18:07:55.293Z,88.10
2018-02-05T18:10:22.851Z,87.70
2018-02-05T18:12:50.434Z,87.20
2018-02-05T18:15:17.992Z,87.40
2018-02-05T18:17:45.571Z,87.00
2018-02-05T18:20:13.137Z,87.20
2018-02-05T18:22:40.687Z,87.40
2018-02-05T18:25:08.276Z,87.40
2018-02-05T18:27:35.835Z,87.20
2018-02-05T18:30:04.152Z,86.90
2018-02-05T18:32:32.487Z,87.10
2018-02-05T18:35:00.812Z,86.90
2018-02-05T18:37:28.383Z,86.80
2018-02-05T18:39:55.964Z,87.40
2018-02-05T18:42:24.308Z,88.20
2018-02-05T18:44:51.867Z,87.60
2018-02-05T18:47:22.930Z,87.20
2018-02-05T18:49:50.548Z,87.60
2018-02-05T18:52:18.948Z,88.20
2018-02-05T18:54:46.536Z,88.20
2018-02-05T18:57:16.123Z,88.10
2018-02-05T18:59:43.675Z,88.20
2018-02-05T19:02:21.023Z,88.00
2018-02-05T19:07:43.924Z,88.70
2018-02-05T19:10:11.481Z,88.90
2018-02-05T19:12:39.104Z,89.30
2018-02-05T19:15:06.659Z,89.70
2018-02-05T19:17:34.250Z,90.00
2018-02-05T19:23:10.574Z,90.40
2018-02-05T19:25:38.112Z,90.70
2018-02-05T19:28:05.667Z,91.10
2018-02-05T19:30:33.236Z,91.30
2018-02-05T19:33:00.804Z,91.40
2018-02-05T19:38:24.143Z,91.60
2018-02-05T19:40:52.470Z,91.70
2018-02-05T19:43:38.019Z,91.60
2018-02-05T19:46:05.636Z,91.90
2018-02-05T19:48:33.231Z,91.70
2018-02-05T19:51:00.876Z,91.60
2018-02-05T19:53:28.465Z,91.50
2018-02-05T19:55:56.095Z,91.50
2018-02-05T19:58:23.694Z,91.30
2018-02-05T20:00:51.266Z,91.40
2018-02-05T20:03:19.325Z,91.50
2018-02-05T20:05:46.890Z,91.70
2018-02-05T20:08:14.526Z,91.70
2018-02-05T20:10:43.722Z,91.70
2018-02-05T20:13:12.119Z,91.80
2018-02-05T20:15:39.712Z,91.80
2018-02-05T20:18:07.343Z,91.90
2018-02-05T20:20:34.974Z,91.70
2018-02-05T20:23:02.622Z,91.60
2018-02-05T20:25:30.212Z,91.60
2018-02-05T20:27:58.591Z,91.50
2018-02-05T20:30:27.022Z,91.50
2018-02-05T20:32:54.646Z,91.50
2018-02-05T20:35:22.211Z,91.50
2018-02-05T20:37:50.541Z,91.40
2018-02-05T20:40:18.125Z,91.40
2018-02-05T20:42:45.715Z,91.30
2018-02-05T20:45:13.336Z,91.30
2018-02-05T20:47:40.914Z,91.50
2018-02-05T20:50:09.250Z,91.40
2018-02-05T20:52:36.811Z,91.40
2018-02-05T20:55:04.370Z,91.20
2018-02-05T21:00:36.333Z,91.70
2018-02-05T21:03:03.918Z,91.70
2018-02-05T21:05:37.219Z,91.90
2018-02-05T21:08:23.370Z,91.90
2018-02-05T21:10:50.927Z,92.00
2018-02-05T21:13:18.499Z,92.10
2018-02-05T21:15:46.085Z,91.90
2018-02-05T21:18:13.650Z,92.20
2018-02-05T21:20:41.894Z,92.20
2018-02-05T21:23:09.450Z,92.20
2018-02-05T21:25:37.043Z,92.10
2018-02-05T21:28:04.607Z,92.20
2018-02-05T21:30:32.212Z,91.90
2018-02-05T21:33:00.547Z,91.50
2018-02-05T21:35:28.147Z,91.40
2018-02-05T21:37:55.731Z,91.50
2018-02-05T21:40:23.291Z,91.50
2018-02-05T21:42:50.864Z,91.70
2018-02-05T21:45:18.870Z,91.80
2018-02-05T21:47:46.436Z,92.30
2018-02-05T21:50:14.024Z,92.20
2018-02-05T21:52:41.630Z,92.20
2018-02-05T21:55:09.238Z,92.20
2018-02-05T21:57:36.819Z,92.40
2018-02-05T22:00:04.421Z,92.30
2018-02-05T22:02:31.976Z,91.90
2018-02-05T22:04:59.538Z,92.00
2018-02-05T22:07:27.127Z,92.00
2018-02-05T22:09:54.683Z,91.70
2018-02-05T22:12:22.250Z,91.90
2018-02-05T22:14:49.819Z,91.90
2018-02-05T22:17:17.379Z,91.90
2018-02-05T22:19:44.972Z,91.80
2018-02-05T22:22:12.543Z,92.00
2018-02-05T22:24:40.102Z,92.40
2018-02-05T22:27:07.687Z,92.50
2018-02-05T22:29:35.240Z,92.40
2018-02-05T22:32:02.835Z,92.40
2018-02-05T22:34:30.394Z,92.20
2018-02-05T22:36:57.954Z,92.10
2018-02-05T22:39:25.508Z,92.30
2018-02-05T22:41:56.008Z,92.50
2018-02-05T22:44:23.600Z,92.20
2018-02-05T22:46:51.159Z,92.50
2018-02-05T22:49:18.723Z,92.80
2018-02-05T22:51:46.283Z,92.60
2018-02-05T22:54:13.850Z,92.80
2018-02-05T22:56:41.439Z,92.80
2018-02-05T22:59:09.001Z,92.90
2018-02-05T23:01:36.567Z,92.70
2018-02-05T23:04:04.130Z,93.00
2018-02-05T23:06:31.698Z,93.00
2018-02-05T23:08:59.280Z,93.10
2018-02-05T23:11:26.854Z,93.10
2018-02-05T23:13:54.414Z,93.40
2018-02-05T23:16:22.746Z,93.00
2018-02-05T23:18:50.304Z,93.00
2018-02-05T23:21:17.896Z,92.90
2018-02-05T23:23:45.459Z,92.90
2018-02-05T23:26:13.966Z,92.80
2018-02-05T23:28:41.533Z,93.00
2018-02-05T23:31:09.103Z,93.20
2018-02-05T23:33:36.690Z,93.20
2018-02-05T23:36:04.282Z,93.10
2018-02-05T23:38:31.838Z,93.00
2018-02-05T23:40:59.410Z,92.70
2018-02-05T23:43:26.979Z,92.70
2018-02-05T23:45:54.543Z,92.50
2018-02-05T23:48:22.119Z,92.70
2018-02-05T23:50:49.666Z,92.40
2018-02-05T23:53:17.228Z,92.60
2018-02-05T23:55:44.784Z,92.30
2018-02-05T23:58:12.351Z,92.30
